sensor_id;sensor_type;location;lat;lon;timestamp;P1;durP1;ratioP1;P2;durP2;ratioP2
23282;SDS011;11810;51.178;3.878;2023-04-24T00:01:48;141.32;;;66.97;;
23282;SDS011;11810;51.178;3.878;2023-04-24T00:04:14;248.90;;;129.38;;
23282;SDS011;11810;51.178;3.878;2023-04-24T00:06:41;313.70;;;160.63;;
23282;SDS011;11810;51.178;3.878;2023-04-24T00:09:11;337.23;;;177.30;;
23282;SDS011;11810;51.178;3.878;2023-04-24T00:11:37;301.60;;;149.60;;
23282;SDS011;11810;51.178;3.878;2023-04-24T00:14:03;237.27;;;118.63;;
23282;SDS011;11810;51.178;3.878;2023-04-24T00:16:29;261.80;;;133.68;;
23282;SDS011;11810;51.178;3.878;2023-04-24T00:18:55;344.77;;;184.35;;
23282;SDS011;11810;51.178;3.878;2023-04-24T00:21:21;316.95;;;171.13;;
23282;SDS011;11810;51.178;3.878;2023-04-24T00:23:50;200.00;;;103.93;;
23282;SDS011;11810;51.178;3.878;2023-04-24T00:26:16;100.63;;;54.42;;
23282;SDS011;11810;51.178;3.878;2023-04-24T00:28:42;164.70;;;89.85;;
23282;SDS011;11810;51.178;3.878;2023-04-24T00:31:08;101.65;;;54.97;;
23282;SDS011;11810;51.178;3.878;2023-04-24T00:33:34;69.13;;;35.70;;
23282;SDS011;11810;51.178;3.878;2023-04-24T00:36:01;24.60;;;16.73;;
23282;SDS011;11810;51.178;3.878;2023-04-24T00:38:26;36.67;;;18.92;;
23282;SDS011;11810;51.178;3.878;2023-04-24T00:40:52;42.17;;;26.92;;
23282;SDS011;11810;51.178;3.878;2023-04-24T00:43:19;32.80;;;17.77;;
23282;SDS011;11810;51.178;3.878;2023-04-24T00:45:45;26.90;;;19.50;;
23282;SDS011;11810;51.178;3.878;2023-04-24T00:48:11;28.83;;;18.90;;
23282;SDS011;11810;51.178;3.878;2023-04-24T00:50:38;22.20;;;16.13;;
23282;SDS011;11810;51.178;3.878;2023-04-24T00:53:04;31.25;;;20.75;;
23282;SDS011;11810;51.178;3.878;2023-04-24T00:55:30;29.77;;;16.90;;
23282;SDS011;11810;51.178;3.878;2023-04-24T00:57:57;42.38;;;27.27;;
23282;SDS011;11810;51.178;3.878;2023-04-24T01:00:23;35.45;;;21.30;;
23282;SDS011;11810;51.178;3.878;2023-04-24T01:02:50;55.75;;;23.65;;
23282;SDS011;11810;51.178;3.878;2023-04-24T01:05:18;46.63;;;26.27;;
23282;SDS011;11810;51.178;3.878;2023-04-24T01:07:45;40.22;;;23.65;;
23282;SDS011;11810;51.178;3.878;2023-04-24T01:10:13;74.68;;;42.35;;
23282;SDS011;11810;51.178;3.878;2023-04-24T01:12:40;56.08;;;32.60;;
23282;SDS011;11810;51.178;3.878;2023-04-24T01:15:06;42.90;;;24.58;;
23282;SDS011;11810;51.178;3.878;2023-04-24T01:17:33;38.05;;;21.73;;
23282;SDS011;11810;51.178;3.878;2023-04-24T01:20:00;63.67;;;37.28;;
23282;SDS011;11810;51.178;3.878;2023-04-24T01:22:27;57.35;;;35.15;;
23282;SDS011;11810;51.178;3.878;2023-04-24T01:24:53;92.68;;;54.05;;
23282;SDS011;11810;51.178;3.878;2023-04-24T01:29:16;62.50;;;37.47;;
23282;SDS011;11810;51.178;3.878;2023-04-24T01:31:42;42.03;;;25.42;;
23282;SDS011;11810;51.178;3.878;2023-04-24T01:34:08;55.35;;;30.02;;
23282;SDS011;11810;51.178;3.878;2023-04-24T01:36:34;50.13;;;27.02;;
23282;SDS011;11810;51.178;3.878;2023-04-24T01:39:01;48.67;;;26.48;;
23282;SDS011;11810;51.178;3.878;2023-04-24T01:41:28;77.03;;;36.40;;
23282;SDS011;11810;51.178;3.878;2023-04-24T01:43:55;198.63;;;83.75;;
23282;SDS011;11810;51.178;3.878;2023-04-24T01:46:23;138.20;;;69.80;;
23282;SDS011;11810;51.178;3.878;2023-04-24T01:48:49;155.77;;;78.28;;
23282;SDS011;11810;51.178;3.878;2023-04-24T01:51:17;81.55;;;40.50;;
23282;SDS011;11810;51.178;3.878;2023-04-24T01:53:43;77.63;;;42.53;;
23282;SDS011;11810;51.178;3.878;2023-04-24T01:56:09;3.70;;;2.28;;
23282;SDS011;11810;51.178;3.878;2023-04-24T01:58:35;1.52;;;1.52;;
23282;SDS011;11810;51.178;3.878;2023-04-24T02:01:01;1.60;;;1.52;;
23282;SDS011;11810;51.178;3.878;2023-04-24T02:03:27;1.23;;;1.23;;
23282;SDS011;11810;51.178;3.878;2023-04-24T02:05:53;0.68;;;0.68;;
23282;SDS011;11810;51.178;3.878;2023-04-24T02:08:19;1.55;;;1.45;;
23282;SDS011;11810;51.178;3.878;2023-04-24T02:10:45;0.70;;;0.70;;
23282;SDS011;11810;51.178;3.878;2023-04-24T02:13:11;1.50;;;1.50;;
23282;SDS011;11810;51.178;3.878;2023-04-24T02:15:37;0.85;;;0.85;;
23282;SDS011;11810;51.178;3.878;2023-04-24T02:18:03;0.40;;;0.40;;
23282;SDS011;11810;51.178;3.878;2023-04-24T02:20:29;2.00;;;1.83;;
23282;SDS011;11810;51.178;3.878;2023-04-24T02:22:55;5.10;;;1.85;;
23282;SDS011;11810;51.178;3.878;2023-04-24T02:25:21;3.08;;;2.95;;
23282;SDS011;11810;51.178;3.878;2023-04-24T02:27:47;1.38;;;1.35;;
23282;SDS011;11810;51.178;3.878;2023-04-24T02:30:13;4.50;;;4.07;;
23282;SDS011;11810;51.178;3.878;2023-04-24T02:32:39;3.95;;;2.30;;
23282;SDS011;11810;51.178;3.878;2023-04-24T02:35:05;1.15;;;1.15;;
23282;SDS011;11810;51.178;3.878;2023-04-24T02:37:31;1.88;;;1.75;;
23282;SDS011;11810;51.178;3.878;2023-04-24T02:39:57;0.30;;;0.30;;
23282;SDS011;11810;51.178;3.878;2023-04-24T02:42:23;0.93;;;0.60;;
23282;SDS011;11810;51.178;3.878;2023-04-24T02:44:49;0.70;;;0.70;;
23282;SDS011;11810;51.178;3.878;2023-04-24T02:47:16;0.65;;;0.65;;
23282;SDS011;11810;51.178;3.878;2023-04-24T02:49:42;1.90;;;1.80;;
23282;SDS011;11810;51.178;3.878;2023-04-24T02:52:08;0.25;;;0.25;;
23282;SDS011;11810;51.178;3.878;2023-04-24T02:54:34;1.00;;;0.93;;
23282;SDS011;11810;51.178;3.878;2023-04-24T02:57:00;0.43;;;0.43;;
23282;SDS011;11810;51.178;3.878;2023-04-24T02:59:26;0.28;;;0.28;;
23282;SDS011;11810;51.178;3.878;2023-04-24T03:01:54;0.50;;;0.50;;
23282;SDS011;11810;51.178;3.878;2023-04-24T03:04:20;0.22;;;0.22;;
23282;SDS011;11810;51.178;3.878;2023-04-24T03:06:47;0.22;;;0.22;;
23282;SDS011;11810;51.178;3.878;2023-04-24T03:09:12;0.20;;;0.20;;
23282;SDS011;11810;51.178;3.878;2023-04-24T03:11:38;0.30;;;0.30;;
23282;SDS011;11810;51.178;3.878;2023-04-24T03:14:05;0.40;;;0.40;;
23282;SDS011;11810;51.178;3.878;2023-04-24T03:16:31;0.20;;;0.20;;
23282;SDS011;11810;51.178;3.878;2023-04-24T03:18:58;0.98;;;0.98;;
23282;SDS011;11810;51.178;3.878;2023-04-24T03:21:23;0.30;;;0.30;;
23282;SDS011;11810;51.178;3.878;2023-04-24T03:23:49;0.30;;;0.30;;
23282;SDS011;11810;51.178;3.878;2023-04-24T03:26:15;1.35;;;1.25;;
23282;SDS011;11810;51.178;3.878;2023-04-24T03:28:41;0.30;;;0.30;;
23282;SDS011;11810;51.178;3.878;2023-04-24T03:31:07;0.30;;;0.30;;
23282;SDS011;11810;51.178;3.878;2023-04-24T03:33:33;0.82;;;0.82;;
23282;SDS011;11810;51.178;3.878;2023-04-24T03:35:59;0.30;;;0.30;;
23282;SDS011;11810;51.178;3.878;2023-04-24T03:38:25;0.22;;;0.22;;
23282;SDS011;11810;51.178;3.878;2023-04-24T03:40:51;0.40;;;0.40;;
23282;SDS011;11810;51.178;3.878;2023-04-24T03:43:17;0.30;;;0.30;;
23282;SDS011;11810;51.178;3.878;2023-04-24T03:45:43;0.55;;;0.55;;
23282;SDS011;11810;51.178;3.878;2023-04-24T03:48:08;0.50;;;0.50;;
23282;SDS011;11810;51.178;3.878;2023-04-24T03:50:34;0.55;;;0.55;;
23282;SDS011;11810;51.178;3.878;2023-04-24T03:53:00;0.30;;;0.30;;
23282;SDS011;11810;51.178;3.878;2023-04-24T03:55:26;0.22;;;0.22;;
23282;SDS011;11810;51.178;3.878;2023-04-24T03:57:52;2.38;;;2.08;;
23282;SDS011;11810;51.178;3.878;2023-04-24T04:00:18;2.17;;;0.73;;
23282;SDS011;11810;51.178;3.878;2023-04-24T04:02:44;0.20;;;0.20;;
23282;SDS011;11810;51.178;3.878;2023-04-24T04:05:10;0.38;;;0.38;;
23282;SDS011;11810;51.178;3.878;2023-04-24T04:07:36;1.10;;;0.65;;
23282;SDS011;11810;51.178;3.878;2023-04-24T04:10:02;0.35;;;0.35;;
23282;SDS011;11810;51.178;3.878;2023-04-24T04:12:28;0.35;;;0.35;;
23282;SDS011;11810;51.178;3.878;2023-04-24T04:14:55;1.15;;;1.15;;
23282;SDS011;11810;51.178;3.878;2023-04-24T04:17:21;0.50;;;0.50;;
23282;SDS011;11810;51.178;3.878;2023-04-24T04:19:46;0.35;;;0.35;;
23282;SDS011;11810;51.178;3.878;2023-04-24T04:22:12;1.00;;;1.00;;
23282;SDS011;11810;51.178;3.878;2023-04-24T04:24:38;0.30;;;0.30;;
23282;SDS011;11810;51.178;3.878;2023-04-24T04:27:05;0.20;;;0.20;;
23282;SDS011;11810;51.178;3.878;2023-04-24T04:29:33;0.30;;;0.30;;
23282;SDS011;11810;51.178;3.878;2023-04-24T04:32:00;0.47;;;0.47;;
23282;SDS011;11810;51.178;3.878;2023-04-24T04:34:26;2.38;;;1.38;;
23282;SDS011;11810;51.178;3.878;2023-04-24T04:36:52;1.65;;;1.42;;
23282;SDS011;11810;51.178;3.878;2023-04-24T04:39:18;0.90;;;0.85;;
23282;SDS011;11810;51.178;3.878;2023-04-24T04:41:44;0.43;;;0.43;;
23282;SDS011;11810;51.178;3.878;2023-04-24T04:44:14;0.30;;;0.30;;
23282;SDS011;11810;51.178;3.878;2023-04-24T04:46:40;0.32;;;0.32;;
23282;SDS011;11810;51.178;3.878;2023-04-24T04:49:07;0.38;;;0.38;;
23282;SDS011;11810;51.178;3.878;2023-04-24T04:51:34;0.38;;;0.38;;
23282;SDS011;11810;51.178;3.878;2023-04-24T04:54:00;1.25;;;0.93;;
23282;SDS011;11810;51.178;3.878;2023-04-24T04:56:26;0.68;;;0.68;;
23282;SDS011;11810;51.178;3.878;2023-04-24T04:58:51;1.70;;;1.60;;
23282;SDS011;11810;51.178;3.878;2023-04-24T05:01:18;1.15;;;1.10;;
23282;SDS011;11810;51.178;3.878;2023-04-24T05:03:44;1.25;;;1.25;;
23282;SDS011;11810;51.178;3.878;2023-04-24T05:06:10;2.50;;;1.63;;
23282;SDS011;11810;51.178;3.878;2023-04-24T05:08:36;0.30;;;0.30;;
23282;SDS011;11810;51.178;3.878;2023-04-24T05:11:02;1.20;;;1.20;;
23282;SDS011;11810;51.178;3.878;2023-04-24T05:13:28;0.63;;;0.63;;
23282;SDS011;11810;51.178;3.878;2023-04-24T05:15:53;0.40;;;0.40;;
23282;SDS011;11810;51.178;3.878;2023-04-24T05:18:20;0.60;;;0.60;;
23282;SDS011;11810;51.178;3.878;2023-04-24T05:20:46;2.28;;;1.10;;
23282;SDS011;11810;51.178;3.878;2023-04-24T05:23:12;0.30;;;0.30;;
23282;SDS011;11810;51.178;3.878;2023-04-24T05:25:38;1.17;;;1.17;;
23282;SDS011;11810;51.178;3.878;2023-04-24T05:28:05;1.05;;;1.05;;
23282;SDS011;11810;51.178;3.878;2023-04-24T05:30:31;0.47;;;0.47;;
23282;SDS011;11810;51.178;3.878;2023-04-24T05:32:56;0.60;;;0.60;;
23282;SDS011;11810;51.178;3.878;2023-04-24T05:35:22;0.30;;;0.30;;
23282;SDS011;11810;51.178;3.878;2023-04-24T05:37:48;0.43;;;0.43;;
23282;SDS011;11810;51.178;3.878;2023-04-24T05:40:14;0.47;;;0.47;;
23282;SDS011;11810;51.178;3.878;2023-04-24T05:42:40;1.45;;;0.93;;
23282;SDS011;11810;51.178;3.878;2023-04-24T05:45:06;0.60;;;0.60;;
23282;SDS011;11810;51.178;3.878;2023-04-24T05:47:33;0.40;;;0.40;;
23282;SDS011;11810;51.178;3.878;2023-04-24T05:49:59;2.03;;;1.83;;
23282;SDS011;11810;51.178;3.878;2023-04-24T05:52:25;0.30;;;0.30;;
23282;SDS011;11810;51.178;3.878;2023-04-24T05:54:50;0.40;;;0.40;;
23282;SDS011;11810;51.178;3.878;2023-04-24T05:57:16;0.73;;;0.73;;
23282;SDS011;11810;51.178;3.878;2023-04-24T05:59:42;4.00;;;2.65;;
23282;SDS011;11810;51.178;3.878;2023-04-24T06:02:08;0.32;;;0.32;;
23282;SDS011;11810;51.178;3.878;2023-04-24T06:04:34;1.02;;;1.02;;
23282;SDS011;11810;51.178;3.878;2023-04-24T06:07:00;34.38;;;2.58;;
23282;SDS011;11810;51.178;3.878;2023-04-24T06:09:26;0.20;;;0.20;;
23282;SDS011;11810;51.178;3.878;2023-04-24T06:11:52;1.13;;;0.65;;
23282;SDS011;11810;51.178;3.878;2023-04-24T06:14:18;4.60;;;3.05;;
23282;SDS011;11810;51.178;3.878;2023-04-24T06:16:45;0.35;;;0.35;;
23282;SDS011;11810;51.178;3.878;2023-04-24T06:19:11;1.85;;;1.75;;
23282;SDS011;11810;51.178;3.878;2023-04-24T06:21:36;1.65;;;1.60;;
23282;SDS011;11810;51.178;3.878;2023-04-24T06:24:02;0.30;;;0.30;;
23282;SDS011;11810;51.178;3.878;2023-04-24T06:26:29;1.85;;;1.75;;
23282;SDS011;11810;51.178;3.878;2023-04-24T06:28:55;0.30;;;0.30;;
23282;SDS011;11810;51.178;3.878;2023-04-24T06:31:23;0.50;;;0.50;;
23282;SDS011;11810;51.178;3.878;2023-04-24T06:33:49;1.30;;;1.30;;
23282;SDS011;11810;51.178;3.878;2023-04-24T06:36:15;0.55;;;0.55;;
23282;SDS011;11810;51.178;3.878;2023-04-24T06:38:42;2.47;;;2.30;;
23282;SDS011;11810;51.178;3.878;2023-04-24T06:41:44;0.30;;;0.30;;
23282;SDS011;11810;51.178;3.878;2023-04-24T06:44:10;0.40;;;0.40;;
23282;SDS011;11810;51.178;3.878;2023-04-24T06:46:36;0.45;;;0.45;;
23282;SDS011;11810;51.178;3.878;2023-04-24T06:49:01;0.73;;;0.73;;
23282;SDS011;11810;51.178;3.878;2023-04-24T06:51:27;1.58;;;1.48;;
23282;SDS011;11810;51.178;3.878;2023-04-24T06:53:53;0.98;;;0.77;;
23282;SDS011;11810;51.178;3.878;2023-04-24T06:56:21;0.20;;;0.20;;
23282;SDS011;11810;51.178;3.878;2023-04-24T06:58:47;2.05;;;0.95;;
23282;SDS011;11810;51.178;3.878;2023-04-24T07:01:13;0.20;;;0.20;;
23282;SDS011;11810;51.178;3.878;2023-04-24T07:03:39;0.32;;;0.32;;
23282;SDS011;11810;51.178;3.878;2023-04-24T07:06:05;0.70;;;0.57;;
23282;SDS011;11810;51.178;3.878;2023-04-24T07:08:31;0.30;;;0.30;;
23282;SDS011;11810;51.178;3.878;2023-04-24T07:10:58;0.30;;;0.30;;
23282;SDS011;11810;51.178;3.878;2023-04-24T07:13:24;0.32;;;0.32;;
23282;SDS011;11810;51.178;3.878;2023-04-24T07:15:51;0.20;;;0.20;;
23282;SDS011;11810;51.178;3.878;2023-04-24T07:18:20;1.10;;;1.10;;
23282;SDS011;11810;51.178;3.878;2023-04-24T07:20:47;0.57;;;0.57;;
23282;SDS011;11810;51.178;3.878;2023-04-24T07:23:15;1.02;;;1.02;;
23282;SDS011;11810;51.178;3.878;2023-04-24T07:25:42;0.20;;;0.20;;
23282;SDS011;11810;51.178;3.878;2023-04-24T07:28:08;0.20;;;0.20;;
23282;SDS011;11810;51.178;3.878;2023-04-24T07:30:34;0.50;;;0.50;;
23282;SDS011;11810;51.178;3.878;2023-04-24T07:32:59;20.77;;;8.07;;
23282;SDS011;11810;51.178;3.878;2023-04-24T07:35:26;24.67;;;7.53;;
23282;SDS011;11810;51.178;3.878;2023-04-24T07:37:55;28.42;;;7.80;;
23282;SDS011;11810;51.178;3.878;2023-04-24T07:40:21;26.77;;;7.80;;
23282;SDS011;11810;51.178;3.878;2023-04-24T07:42:48;27.83;;;8.35;;
23282;SDS011;11810;51.178;3.878;2023-04-24T07:45:14;21.90;;;8.30;;
23282;SDS011;11810;51.178;3.878;2023-04-24T07:47:43;21.90;;;6.93;;
23282;SDS011;11810;51.178;3.878;2023-04-24T07:50:11;20.75;;;7.57;;
23282;SDS011;11810;51.178;3.878;2023-04-24T07:52:38;24.73;;;7.50;;
23282;SDS011;11810;51.178;3.878;2023-04-24T07:55:04;28.60;;;7.50;;
23282;SDS011;11810;51.178;3.878;2023-04-24T07:57:30;22.48;;;6.00;;
23282;SDS011;11810;51.178;3.878;2023-04-24T07:59:56;28.27;;;6.53;;
23282;SDS011;11810;51.178;3.878;2023-04-24T08:02:22;25.17;;;7.18;;
23282;SDS011;11810;51.178;3.878;2023-04-24T08:04:52;20.08;;;6.47;;
23282;SDS011;11810;51.178;3.878;2023-04-24T08:07:19;29.02;;;7.18;;
23282;SDS011;11810;51.178;3.878;2023-04-24T08:09:45;23.30;;;7.07;;
23282;SDS011;11810;51.178;3.878;2023-04-24T08:12:11;25.20;;;7.32;;
23282;SDS011;11810;51.178;3.878;2023-04-24T08:14:37;21.77;;;8.20;;
23282;SDS011;11810;51.178;3.878;2023-04-24T08:17:03;26.77;;;9.88;;
23282;SDS011;11810;51.178;3.878;2023-04-24T08:19:29;21.67;;;7.43;;
23282;SDS011;11810;51.178;3.878;2023-04-24T08:21:55;25.60;;;9.05;;
23282;SDS011;11810;51.178;3.878;2023-04-24T08:24:22;22.55;;;7.32;;
23282;SDS011;11810;51.178;3.878;2023-04-24T08:26:48;21.85;;;8.15;;
23282;SDS011;11810;51.178;3.878;2023-04-24T08:29:19;21.15;;;7.90;;
23282;SDS011;11810;51.178;3.878;2023-04-24T08:31:45;26.65;;;7.63;;
23282;SDS011;11810;51.178;3.878;2023-04-24T08:34:11;21.10;;;6.90;;
23282;SDS011;11810;51.178;3.878;2023-04-24T08:36:37;25.52;;;6.53;;
23282;SDS011;11810;51.178;3.878;2023-04-24T08:39:03;13.48;;;5.15;;
23282;SDS011;11810;51.178;3.878;2023-04-24T08:41:29;16.55;;;5.15;;
23282;SDS011;11810;51.178;3.878;2023-04-24T08:43:55;17.77;;;5.82;;
23282;SDS011;11810;51.178;3.878;2023-04-24T08:46:24;17.60;;;5.57;;
23282;SDS011;11810;51.178;3.878;2023-04-24T08:48:50;10.73;;;4.90;;
23282;SDS011;11810;51.178;3.878;2023-04-24T08:51:17;14.18;;;5.03;;
23282;SDS011;11810;51.178;3.878;2023-04-24T08:53:45;13.18;;;5.00;;
23282;SDS011;11810;51.178;3.878;2023-04-24T08:56:12;12.27;;;4.10;;
23282;SDS011;11810;51.178;3.878;2023-04-24T08:58:39;11.85;;;3.70;;
23282;SDS011;11810;51.178;3.878;2023-04-24T09:01:05;18.70;;;3.83;;
23282;SDS011;11810;51.178;3.878;2023-04-24T09:03:32;12.60;;;4.40;;
23282;SDS011;11810;51.178;3.878;2023-04-24T09:05:59;16.58;;;3.67;;
23282;SDS011;11810;51.178;3.878;2023-04-24T09:08:26;15.90;;;4.40;;
23282;SDS011;11810;51.178;3.878;2023-04-24T09:10:53;13.32;;;4.03;;
23282;SDS011;11810;51.178;3.878;2023-04-24T09:13:19;15.75;;;4.65;;
23282;SDS011;11810;51.178;3.878;2023-04-24T09:15:45;14.18;;;4.90;;
23282;SDS011;11810;51.178;3.878;2023-04-24T09:18:11;11.63;;;4.72;;
23282;SDS011;11810;51.178;3.878;2023-04-24T09:23:27;13.48;;;4.00;;
23282;SDS011;11810;51.178;3.878;2023-04-24T09:25:55;16.02;;;5.15;;
23282;SDS011;11810;51.178;3.878;2023-04-24T09:31:18;13.48;;;4.82;;
23282;SDS011;11810;51.178;3.878;2023-04-24T09:33:58;10.93;;;3.80;;
23282;SDS011;11810;51.178;3.878;2023-04-24T09:36:34;13.15;;;4.22;;
23282;SDS011;11810;51.178;3.878;2023-04-24T09:39:11;13.10;;;4.93;;
23282;SDS011;11810;51.178;3.878;2023-04-24T09:41:47;9.38;;;3.92;;
23282;SDS011;11810;51.178;3.878;2023-04-24T09:46:42;8.35;;;3.65;;
23282;SDS011;11810;51.178;3.878;2023-04-24T09:49:15;17.00;;;4.28;;
23282;SDS011;11810;51.178;3.878;2023-04-24T09:51:47;14.73;;;4.15;;
23282;SDS011;11810;51.178;3.878;2023-04-24T09:54:13;12.32;;;4.68;;
23282;SDS011;11810;51.178;3.878;2023-04-24T09:56:44;13.02;;;3.80;;
23282;SDS011;11810;51.178;3.878;2023-04-24T09:59:12;9.90;;;3.78;;
23282;SDS011;11810;51.178;3.878;2023-04-24T10:01:39;13.27;;;3.97;;
23282;SDS011;11810;51.178;3.878;2023-04-24T10:04:17;12.30;;;3.35;;
23282;SDS011;11810;51.178;3.878;2023-04-24T10:06:44;12.95;;;4.38;;
23282;SDS011;11810;51.178;3.878;2023-04-24T10:09:11;14.07;;;4.07;;
23282;SDS011;11810;51.178;3.878;2023-04-24T10:11:41;13.45;;;4.10;;
23282;SDS011;11810;51.178;3.878;2023-04-24T10:14:11;13.93;;;4.85;;
23282;SDS011;11810;51.178;3.878;2023-04-24T10:16:41;8.75;;;3.95;;
23282;SDS011;11810;51.178;3.878;2023-04-24T10:19:08;12.07;;;4.40;;
23282;SDS011;11810;51.178;3.878;2023-04-24T10:21:35;17.15;;;4.97;;
23282;SDS011;11810;51.178;3.878;2023-04-24T10:24:04;10.30;;;4.65;;
23282;SDS011;11810;51.178;3.878;2023-04-24T10:26:32;9.55;;;4.22;;
23282;SDS011;11810;51.178;3.878;2023-04-24T10:28:59;9.32;;;3.97;;
23282;SDS011;11810;51.178;3.878;2023-04-24T10:31:25;19.20;;;4.00;;
23282;SDS011;11810;51.178;3.878;2023-04-24T10:33:52;12.93;;;4.05;;
23282;SDS011;11810;51.178;3.878;2023-04-24T10:36:20;9.73;;;3.97;;
23282;SDS011;11810;51.178;3.878;2023-04-24T10:38:49;10.25;;;3.92;;
23282;SDS011;11810;51.178;3.878;2023-04-24T10:41:16;12.88;;;3.70;;
23282;SDS011;11810;51.178;3.878;2023-04-24T10:43:48;11.73;;;3.72;;
23282;SDS011;11810;51.178;3.878;2023-04-24T10:46:30;10.73;;;3.20;;
23282;SDS011;11810;51.178;3.878;2023-04-24T10:48:56;5.78;;;2.88;;
23282;SDS011;11810;51.178;3.878;2023-04-24T10:51:23;7.93;;;3.83;;
23282;SDS011;11810;51.178;3.878;2023-04-24T10:56:50;10.90;;;2.85;;
23282;SDS011;11810;51.178;3.878;2023-04-24T10:59:34;10.32;;;2.70;;
23282;SDS011;11810;51.178;3.878;2023-04-24T11:02:02;7.55;;;2.45;;
23282;SDS011;11810;51.178;3.878;2023-04-24T11:04:32;9.30;;;3.10;;
23282;SDS011;11810;51.178;3.878;2023-04-24T11:06:58;8.18;;;2.53;;
23282;SDS011;11810;51.178;3.878;2023-04-24T11:09:28;10.65;;;2.65;;
23282;SDS011;11810;51.178;3.878;2023-04-24T11:12:09;4.10;;;2.30;;
23282;SDS011;11810;51.178;3.878;2023-04-24T11:17:30;7.30;;;2.60;;
23282;SDS011;11810;51.178;3.878;2023-04-24T11:20:09;6.82;;;2.20;;
23282;SDS011;11810;51.178;3.878;2023-04-24T11:22:37;6.00;;;2.25;;
23282;SDS011;11810;51.178;3.878;2023-04-24T11:25:05;3.70;;;1.80;;
23282;SDS011;11810;51.178;3.878;2023-04-24T11:27:39;6.55;;;2.42;;
23282;SDS011;11810;51.178;3.878;2023-04-24T11:30:09;4.82;;;2.55;;
23282;SDS011;11810;51.178;3.878;2023-04-24T11:35:06;5.10;;;2.00;;
23282;SDS011;11810;51.178;3.878;2023-04-24T11:37:39;5.43;;;2.13;;
23282;SDS011;11810;51.178;3.878;2023-04-24T11:40:10;3.53;;;1.95;;
23282;SDS011;11810;51.178;3.878;2023-04-24T11:42:38;5.85;;;1.80;;
23282;SDS011;11810;51.178;3.878;2023-04-24T11:45:15;4.07;;;1.80;;
23282;SDS011;11810;51.178;3.878;2023-04-24T11:47:43;6.53;;;1.70;;
23282;SDS011;11810;51.178;3.878;2023-04-24T11:50:13;3.10;;;1.48;;
23282;SDS011;11810;51.178;3.878;2023-04-24T11:52:41;6.93;;;1.95;;
23282;SDS011;11810;51.178;3.878;2023-04-24T11:55:29;3.50;;;1.70;;
23282;SDS011;11810;51.178;3.878;2023-04-24T11:57:56;4.72;;;1.90;;
23282;SDS011;11810;51.178;3.878;2023-04-24T12:00:27;3.83;;;1.60;;
23282;SDS011;11810;51.178;3.878;2023-04-24T12:03:04;6.65;;;1.85;;
23282;SDS011;11810;51.178;3.878;2023-04-24T12:05:35;4.05;;;1.67;;
23282;SDS011;11810;51.178;3.878;2023-04-24T12:08:01;4.72;;;2.10;;
23282;SDS011;11810;51.178;3.878;2023-04-24T12:10:28;5.10;;;1.67;;
23282;SDS011;11810;51.178;3.878;2023-04-24T12:12:56;9.07;;;2.17;;
23282;SDS011;11810;51.178;3.878;2023-04-24T12:15:23;7.80;;;1.92;;
23282;SDS011;11810;51.178;3.878;2023-04-24T12:17:50;7.25;;;2.30;;
23282;SDS011;11810;51.178;3.878;2023-04-24T12:20:17;7.57;;;1.80;;
23282;SDS011;11810;51.178;3.878;2023-04-24T12:25:16;5.93;;;1.98;;
23282;SDS011;11810;51.178;3.878;2023-04-24T12:27:43;3.45;;;1.60;;
23282;SDS011;11810;51.178;3.878;2023-04-24T12:30:11;7.68;;;2.63;;
23282;SDS011;11810;51.178;3.878;2023-04-24T12:32:45;5.43;;;1.77;;
23282;SDS011;11810;51.178;3.878;2023-04-24T12:35:12;8.13;;;2.10;;
23282;SDS011;11810;51.178;3.878;2023-04-24T12:37:43;7.72;;;1.90;;
23282;SDS011;11810;51.178;3.878;2023-04-24T12:40:10;8.93;;;2.22;;
23282;SDS011;11810;51.178;3.878;2023-04-24T12:42:47;6.50;;;1.80;;
23282;SDS011;11810;51.178;3.878;2023-04-24T12:45:15;4.55;;;1.45;;
23282;SDS011;11810;51.178;3.878;2023-04-24T12:47:42;6.25;;;1.40;;
23282;SDS011;11810;51.178;3.878;2023-04-24T12:50:10;7.07;;;1.40;;
23282;SDS011;11810;51.178;3.878;2023-04-24T12:52:37;2.45;;;1.20;;
23282;SDS011;11810;51.178;3.878;2023-04-24T12:55:04;8.85;;;1.55;;
23282;SDS011;11810;51.178;3.878;2023-04-24T12:57:33;2.58;;;1.20;;
23282;SDS011;11810;51.178;3.878;2023-04-24T13:00:01;2.53;;;1.10;;
23282;SDS011;11810;51.178;3.878;2023-04-24T13:02:28;3.67;;;1.40;;
23282;SDS011;11810;51.178;3.878;2023-04-24T13:04:56;4.10;;;1.27;;
23282;SDS011;11810;51.178;3.878;2023-04-24T13:07:22;4.57;;;1.20;;
23282;SDS011;11810;51.178;3.878;2023-04-24T13:09:49;4.95;;;1.77;;
23282;SDS011;11810;51.178;3.878;2023-04-24T13:12:16;2.97;;;1.50;;
23282;SDS011;11810;51.178;3.878;2023-04-24T13:14:42;4.18;;;1.80;;
23282;SDS011;11810;51.178;3.878;2023-04-24T13:17:08;6.70;;;1.73;;
23282;SDS011;11810;51.178;3.878;2023-04-24T13:19:38;4.13;;;1.38;;
23282;SDS011;11810;51.178;3.878;2023-04-24T13:22:05;2.22;;;1.23;;
23282;SDS011;11810;51.178;3.878;2023-04-24T13:24:31;5.75;;;1.45;;
23282;SDS011;11810;51.178;3.878;2023-04-24T13:26:58;3.08;;;1.50;;
23282;SDS011;11810;51.178;3.878;2023-04-24T13:29:25;4.93;;;1.55;;
23282;SDS011;11810;51.178;3.878;2023-04-24T13:31:51;5.63;;;1.45;;
23282;SDS011;11810;51.178;3.878;2023-04-24T13:34:24;5.15;;;1.48;;
23282;SDS011;11810;51.178;3.878;2023-04-24T13:36:53;4.80;;;1.77;;
23282;SDS011;11810;51.178;3.878;2023-04-24T13:39:22;4.50;;;1.58;;
23282;SDS011;11810;51.178;3.878;2023-04-24T13:41:48;6.22;;;1.70;;
23282;SDS011;11810;51.178;3.878;2023-04-24T13:44:15;3.85;;;1.55;;
23282;SDS011;11810;51.178;3.878;2023-04-24T13:46:42;6.05;;;1.95;;
23282;SDS011;11810;51.178;3.878;2023-04-24T13:49:10;3.45;;;1.95;;
23282;SDS011;11810;51.178;3.878;2023-04-24T13:51:38;4.57;;;2.13;;
23282;SDS011;11810;51.178;3.878;2023-04-24T13:54:05;5.13;;;2.42;;
23282;SDS011;11810;51.178;3.878;2023-04-24T13:56:31;4.03;;;1.73;;
23282;SDS011;11810;51.178;3.878;2023-04-24T13:58:57;4.93;;;2.17;;
23282;SDS011;11810;51.178;3.878;2023-04-24T14:01:23;6.88;;;1.80;;
23282;SDS011;11810;51.178;3.878;2023-04-24T14:03:52;7.22;;;1.88;;
23282;SDS011;11810;51.178;3.878;2023-04-24T14:06:19;5.43;;;1.70;;
23282;SDS011;11810;51.178;3.878;2023-04-24T14:08:46;7.10;;;2.10;;
23282;SDS011;11810;51.178;3.878;2023-04-24T14:11:12;4.65;;;1.55;;
23282;SDS011;11810;51.178;3.878;2023-04-24T14:13:43;4.57;;;1.90;;
23282;SDS011;11810;51.178;3.878;2023-04-24T14:16:10;8.73;;;1.80;;
23282;SDS011;11810;51.178;3.878;2023-04-24T14:18:36;4.03;;;1.58;;
23282;SDS011;11810;51.178;3.878;2023-04-24T14:21:05;4.85;;;1.45;;
23282;SDS011;11810;51.178;3.878;2023-04-24T14:23:31;3.92;;;1.50;;
23282;SDS011;11810;51.178;3.878;2023-04-24T14:25:57;3.35;;;1.80;;
23282;SDS011;11810;51.178;3.878;2023-04-24T14:28:24;4.90;;;1.90;;
23282;SDS011;11810;51.178;3.878;2023-04-24T14:30:51;8.93;;;1.90;;
23282;SDS011;11810;51.178;3.878;2023-04-24T14:33:17;8.70;;;1.30;;
23282;SDS011;11810;51.178;3.878;2023-04-24T14:35:44;3.33;;;1.77;;
23282;SDS011;11810;51.178;3.878;2023-04-24T14:38:10;4.10;;;1.80;;
23282;SDS011;11810;51.178;3.878;2023-04-24T14:40:36;4.78;;;2.17;;
23282;SDS011;11810;51.178;3.878;2023-04-24T14:43:02;4.88;;;1.85;;
23282;SDS011;11810;51.178;3.878;2023-04-24T14:45:28;3.78;;;2.20;;
23282;SDS011;11810;51.178;3.878;2023-04-24T14:47:55;4.43;;;1.75;;
23282;SDS011;11810;51.178;3.878;2023-04-24T14:50:21;5.70;;;1.63;;
23282;SDS011;11810;51.178;3.878;2023-04-24T14:52:47;3.85;;;1.45;;
23282;SDS011;11810;51.178;3.878;2023-04-24T14:55:13;5.40;;;1.98;;
23282;SDS011;11810;51.178;3.878;2023-04-24T14:57:39;6.85;;;1.73;;
23282;SDS011;11810;51.178;3.878;2023-04-24T15:00:06;3.00;;;1.67;;
23282;SDS011;11810;51.178;3.878;2023-04-24T15:02:34;7.45;;;2.17;;